Time;durP1;ratioP1;P1;durP2;ratioP2;P2;SDS_P1;SDS_P2;PMS_P1;PMS_P2;Temp;Humidity;BMP_temperature;BMP_pressure;BME280_temperature;BME280_humidity;BME280_pressure;Samples;Min_cycle;Max_cycle;Signal;HPM_P1;HPM_P2
2023/11/06 00:00:16;;;;;;;6.35;2.25;;;10.30;99.90;;;;;;4974372;28;20106;-86
2023/11/06 00:02:41;;;;;;;7.55;2.03;;;10.40;99.90;;;;;;4967918;28;20043;-86
2023/11/06 00:05:08;;;;;;;6.35;1.58;;;10.40;99.90;;;;;;4957364;28;20023;-85
2023/11/06 00:07:34;;;;;;;9.00;1.98;;;10.40;99.90;;;;;;4957218;28;20102;-86
2023/11/06 00:10:00;;;;;;;5.78;1.70;;;10.40;99.90;;;;;;4957232;28;20082;-87
2023/11/06 00:12:26;;;;;;;8.60;2.25;;;10.40;99.90;;;;;;4956308;28;20023;-86
2023/11/06 00:14:52;;;;;;;4.60;1.60;;;10.40;99.90;;;;;;4957145;28;20439;-86
2023/11/06 00:17:18;;;;;;;6.93;1.63;;;10.40;99.90;;;;;;4956902;28;20094;-85
2023/11/06 00:19:44;;;;;;;4.03;1.40;;;10.50;99.90;;;;;;4957016;28;20541;-86
2023/11/06 00:22:10;;;;;;;6.53;1.52;;;10.40;99.90;;;;;;4956978;28;20035;-87
2023/11/06 00:24:36;;;;;;;4.97;1.52;;;10.50;99.90;;;;;;4955458;28;20027;-86
2023/11/06 00:27:03;;;;;;;3.03;1.42;;;10.40;99.90;;;;;;4956661;28;20032;-86
2023/11/06 00:29:29;;;;;;;6.75;1.60;;;10.40;99.90;;;;;;4956868;28;20023;-87
2023/11/06 00:31:55;;;;;;;4.55;1.50;;;10.40;99.90;;;;;;4956632;28;20114;-86
2023/11/06 00:34:21;;;;;;;6.13;1.20;;;10.30;99.90;;;;;;4962273;28;20062;-85
2023/11/06 00:36:46;;;;;;;8.55;1.20;;;10.60;99.90;;;;;;4967782;28;20035;-86
2023/11/06 00:39:13;;;;;;;9.77;1.77;;;10.30;99.90;;;;;;4975869;28;20026;-86
2023/11/06 00:41:41;;;;;;;5.03;1.70;;;10.30;99.90;;;;;;4975957;28;20387;-87
2023/11/06 00:44:07;;;;;;;6.13;1.60;;;10.30;99.90;;;;;;4968240;28;20022;-86
2023/11/06 00:46:33;;;;;;;10.07;1.40;;;10.30;99.90;;;;;;4959109;28;20031;-86
2023/11/06 00:48:58;;;;;;;2.75;1.40;;;10.30;99.90;;;;;;4956939;28;20491;-87
2023/11/06 00:51:24;;;;;;;5.63;1.20;;;10.30;99.90;;;;;;4956430;28;20440;-86
2023/11/06 00:53:50;;;;;;;5.80;1.73;;;10.90;99.90;;;;;;4956103;28;20038;-86
2023/11/06 00:56:15;;;;;;;6.03;1.52;;;10.20;99.90;;;;;;4956796;28;20114;-87
2023/11/06 00:58:41;;;;;;;7.10;1.70;;;10.20;99.90;;;;;;4959778;28;20027;-87
2023/11/06 01:01:06;;;;;;;2.88;1.65;;;10.20;99.90;;;;;;4956543;28;20031;-86
2023/11/06 01:03:32;;;;;;;4.82;1.88;;;10.20;99.90;;;;;;4958174;28;20023;-86
2023/11/06 01:05:58;;;;;;;3.55;1.70;;;10.10;99.90;;;;;;4967003;28;20035;-86
2023/11/06 01:08:24;;;;;;;6.65;2.22;;;10.20;99.90;;;;;;4955418;28;20203;-86
2023/11/06 01:10:50;;;;;;;4.55;1.75;;;10.20;99.90;;;;;;4956363;28;20031;-86
2023/11/06 01:13:15;;;;;;;5.55;2.22;;;10.20;99.90;;;;;;4956525;28;20023;-86
2023/11/06 01:15:44;;;;;;;2.40;1.90;;;10.20;99.90;;;;;;4955607;28;20027;-87
2023/11/06 01:18:11;;;;;;;11.27;2.90;;;10.20;99.90;;;;;;4956306;28;20025;-87
2023/11/06 01:20:37;;;;;;;2.90;1.80;;;10.20;99.90;;;;;;4955568;28;20093;-87
2023/11/06 01:23:03;;;;;;;8.45;2.15;;;10.20;99.90;;;;;;4956082;28;20476;-87
2023/11/06 01:25:28;;;;;;;3.05;1.85;;;10.20;99.90;;;;;;4957049;28;20020;-87
2023/11/06 01:27:54;;;;;;;5.30;2.55;;;10.20;99.90;;;;;;4962706;28;20042;-87
2023/11/06 01:30:19;;;;;;;3.17;1.60;;;10.20;99.90;;;;;;4957474;28;20074;-88
2023/11/06 01:32:45;;;;;;;5.40;2.05;;;10.20;99.90;;;;;;4960125;28;20054;-87
2023/11/06 01:35:12;;;;;;;6.78;2.28;;;10.20;99.90;;;;;;4975494;28;20023;-87
2023/11/06 01:37:38;;;;;;;5.57;1.98;;;10.20;99.90;;;;;;4962572;28;20105;-88
2023/11/06 01:40:07;;;;;;;5.07;1.60;;;10.20;99.90;;;;;;4956178;28;20023;-88
2023/11/06 01:42:32;;;;;;;3.22;2.10;;;10.20;99.90;;;;;;4955517;28;20039;-88
2023/11/06 01:44:58;;;;;;;5.43;1.90;;;10.20;99.90;;;;;;4956241;28;20106;-89
2023/11/06 01:47:24;;;;;;;4.28;1.98;;;10.20;99.90;;;;;;4962925;28;20026;-87
2023/11/06 01:49:50;;;;;;;4.47;2.45;;;10.40;99.90;;;;;;4962486;28;20106;-87
2023/11/06 01:52:20;;;;;;;7.75;2.20;;;10.10;99.90;;;;;;4975322;28;20027;-86
2023/11/06 01:54:46;;;;;;;5.70;2.50;;;10.10;99.90;;;;;;4975147;28;20066;-87
2023/11/06 01:57:15;;;;;;;9.60;2.83;;;10.00;99.90;;;;;;4974655;28;20046;-87
2023/11/06 01:59:42;;;;;;;6.07;2.70;;;10.10;99.90;;;;;;4974544;28;20023;-87
2023/11/06 02:02:08;;;;;;;7.97;2.63;;;10.00;99.90;;;;;;4974732;28;20114;-87
2023/11/06 02:04:34;;;;;;;5.22;2.20;;;10.00;99.90;;;;;;4973769;28;20055;-86
2023/11/06 02:07:00;;;;;;;5.40;2.47;;;10.00;99.90;;;;;;4974837;28;20118;-86
2023/11/06 02:09:29;;;;;;;5.28;2.75;;;10.00;99.90;;;;;;4967246;28;20432;-86
2023/11/06 02:11:57;;;;;;;8.82;2.65;;;10.00;99.90;;;;;;4956410;28;20479;-86
2023/11/06 02:14:23;;;;;;;7.65;3.45;;;10.70;99.90;;;;;;4955028;28;20118;-87
2023/11/06 02:16:51;;;;;;;10.70;2.55;;;10.00;99.90;;;;;;4954759;28;20058;-86
2023/11/06 02:19:17;;;;;;;6.53;2.90;;;10.00;99.90;;;;;;4955119;28;20106;-87
2023/11/06 02:21:47;;;;;;;9.73;2.90;;;10.00;99.90;;;;;;4954872;28;20175;-87
2023/11/06 02:24:13;;;;;;;9.93;2.33;;;9.90;99.90;;;;;;4955390;28;20136;-89
2023/11/06 02:26:39;;;;;;;15.70;3.28;;;9.90;99.90;;;;;;4954960;28;20035;-87
2023/11/06 02:29:04;;;;;;;7.55;2.55;;;9.90;99.90;;;;;;4961668;28;20081;-87
2023/11/06 02:31:30;;;;;;;7.63;3.05;;;9.90;99.90;;;;;;4959040;28;20054;-86
2023/11/06 02:33:56;;;;;;;6.22;2.50;;;9.90;99.90;;;;;;4955186;28;20047;-86
2023/11/06 02:36:21;;;;;;;6.32;1.95;;;9.90;99.90;;;;;;4954690;28;20038;-86
2023/11/06 02:38:47;;;;;;;7.57;2.10;;;10.00;99.90;;;;;;4954265;28;20103;-86
2023/11/06 02:41:12;;;;;;;8.15;3.40;;;9.90;99.90;;;;;;4954960;28;20061;-86
2023/11/06 02:43:38;;;;;;;4.90;2.13;;;10.10;99.90;;;;;;4954417;28;20036;-86
2023/11/06 02:46:03;;;;;;;7.30;1.70;;;9.90;99.90;;;;;;4954426;28;20027;-86
2023/11/06 02:48:31;;;;;;;8.20;2.60;;;9.90;99.90;;;;;;4957406;28;20508;-86
2023/11/06 02:50:56;;;;;;;11.23;2.42;;;9.90;99.90;;;;;;4963337;28;20034;-87
2023/11/06 02:53:22;;;;;;;7.35;2.58;;;9.80;99.90;;;;;;4953802;28;20023;-86
2023/11/06 02:55:47;;;;;;;11.43;2.78;;;9.80;99.90;;;;;;4954914;28;20034;-86
2023/11/06 02:58:13;;;;;;;9.93;2.00;;;9.90;99.90;;;;;;4954658;28;20050;-86
2023/11/06 03:00:39;;;;;;;16.00;2.78;;;9.80;99.90;;;;;;4953823;28;20031;-87
2023/11/06 03:03:05;;;;;;;8.70;1.98;;;9.80;99.90;;;;;;4954445;28;20043;-86
2023/11/06 03:05:31;;;;;;;7.43;1.88;;;9.80;99.90;;;;;;4954244;28;20078;-86
2023/11/06 03:07:56;;;;;;;9.40;2.63;;;9.80;99.90;;;;;;4955168;28;20042;-86
2023/11/06 03:10:22;;;;;;;11.48;2.58;;;9.80;99.90;;;;;;4966239;28;20044;-87
2023/11/06 03:12:48;;;;;;;10.18;2.47;;;9.80;99.90;;;;;;4954514;28;20078;-88
2023/11/06 03:15:13;;;;;;;8.20;1.80;;;9.80;99.90;;;;;;4953961;28;20115;-87
2023/11/06 03:17:39;;;;;;;13.63;2.05;;;9.80;99.90;;;;;;4954237;28;20506;-86
2023/11/06 03:20:10;;;;;;;8.45;2.50;;;9.80;99.90;;;;;;4954732;28;20055;-86
2023/11/06 03:22:39;;;;;;;4.68;1.75;;;9.70;99.90;;;;;;4953851;28;20555;-87
2023/11/06 03:25:06;;;;;;;7.05;2.03;;;9.80;99.90;;;;;;4954625;28;20038;-86
2023/11/06 03:27:32;;;;;;;13.93;2.47;;;9.80;99.90;;;;;;4953788;28;20042;-86
2023/11/06 03:29:58;;;;;;;11.35;2.20;;;9.80;99.90;;;;;;4954031;28;20488;-85
2023/11/06 03:32:23;;;;;;;11.15;2.63;;;9.80;99.90;;;;;;4966230;28;20038;-86
2023/11/06 03:34:49;;;;;;;4.75;2.22;;;9.80;99.90;;;;;;4954059;28;20112;-86
2023/11/06 03:37:15;;;;;;;7.25;1.85;;;9.80;99.90;;;;;;4954450;28;20031;-86
2023/11/06 03:39:42;;;;;;;13.00;2.47;;;9.80;99.90;;;;;;4953893;28;20054;-86
2023/11/06 03:42:08;;;;;;;8.15;2.08;;;9.80;99.90;;;;;;4954050;28;20082;-87
2023/11/06 03:44:33;;;;;;;3.03;1.75;;;9.80;99.90;;;;;;4953886;28;20028;-86
2023/11/06 03:46:59;;;;;;;8.00;1.92;;;9.80;99.90;;;;;;4953919;28;20114;-87
2023/11/06 03:49:25;;;;;;;6.72;1.73;;;9.80;99.90;;;;;;4953528;28;20042;-86
2023/11/06 03:51:51;;;;;;;6.60;1.40;;;9.80;99.90;;;;;;4954290;28;20039;-87
2023/11/06 03:54:16;;;;;;;5.97;2.08;;;9.80;99.90;;;;;;4965028;28;20027;-86
2023/11/06 03:56:42;;;;;;;9.65;2.15;;;9.80;99.90;;;;;;4972791;28;20066;-87
2023/11/06 03:59:07;;;;;;;5.38;1.33;;;9.80;99.90;;;;;;4973523;28;20467;-87
2023/11/06 04:01:34;;;;;;;5.45;1.70;;;9.80;99.90;;;;;;4976246;28;20522;-87
2023/11/06 04:04:00;;;;;;;3.50;1.27;;;9.80;99.90;;;;;;4976614;28;20453;-86
2023/11/06 04:06:26;;;;;;;4.00;1.58;;;9.80;99.90;;;;;;4976612;28;20035;-86
2023/11/06 04:08:52;;;;;;;9.68;1.52;;;9.80;99.90;;;;;;4976942;28;20459;-87
2023/11/06 04:11:17;;;;;;;6.00;2.30;;;9.80;99.90;;;;;;4975850;28;20033;-87
2023/11/06 04:13:43;;;;;;;6.40;2.50;;;9.80;99.90;;;;;;4973247;28;20487;-86
2023/11/06 04:16:09;;;;;;;3.85;1.30;;;9.80;99.90;;;;;;4967041;28;20050;-87
2023/11/06 04:18:35;;;;;;;7.70;1.50;;;9.80;99.90;;;;;;4956252;28;20039;-87
2023/11/06 04:21:01;;;;;;;6.03;1.48;;;9.80;99.90;;;;;;4957263;28;20040;-86
2023/11/06 04:23:28;;;;;;;2.95;1.20;;;9.80;99.90;;;;;;4956137;28;20555;-86
2023/11/06 04:25:53;;;;;;;4.03;1.88;;;9.70;99.90;;;;;;4957268;28;20107;-87
2023/11/06 04:28:19;;;;;;;4.07;1.20;;;9.70;99.90;;;;;;4957096;28;20095;-88
2023/11/06 04:30:44;;;;;;;8.75;1.52;;;9.70;99.90;;;;;;4955965;28;20055;-86
2023/11/06 04:33:10;;;;;;;3.80;1.08;;;9.70;99.90;;;;;;4957096;28;20024;-86
2023/11/06 04:35:35;;;;;;;8.95;1.48;;;9.70;99.90;;;;;;4959411;28;20033;-86
2023/11/06 04:38:01;;;;;;;5.43;1.35;;;9.70;99.90;;;;;;4965088;28;20067;-89
2023/11/06 04:40:28;;;;;;;6.28;1.77;;;9.70;99.90;;;;;;4956688;28;20028;-88
2023/11/06 04:42:54;;;;;;;2.45;1.00;;;9.70;99.90;;;;;;4956956;28;20047;-87
2023/11/06 04:45:19;;;;;;;4.25;1.38;;;9.70;99.90;;;;;;4956777;28;20034;-87
2023/11/06 04:47:45;;;;;;;3.97;1.23;;;9.70;99.90;;;;;;4956974;28;20619;-87
2023/11/06 04:50:12;;;;;;;7.38;1.40;;;9.70;99.90;;;;;;4956712;28;20024;-87
2023/11/06 04:52:38;;;;;;;6.47;1.25;;;9.70;99.90;;;;;;4955963;28;20027;-88
2023/11/06 04:55:05;;;;;;;4.40;1.42;;;9.70;99.90;;;;;;4958414;28;20039;-88
2023/11/06 04:57:31;;;;;;;8.20;1.08;;;9.70;99.90;;;;;;4967114;28;20028;-87
2023/11/06 04:59:57;;;;;;;4.65;1.42;;;9.70;99.90;;;;;;4956294;28;20035;-87
2023/11/06 05:02:23;;;;;;;7.07;1.33;;;9.70;99.90;;;;;;4956343;28;20035;-87
2023/11/06 05:04:49;;;;;;;5.97;1.45;;;9.70;99.90;;;;;;4956388;28;20046;-86
2023/11/06 05:07:14;;;;;;;6.20;1.40;;;9.70;99.90;;;;;;4956082;28;20058;-87
2023/11/06 05:09:40;;;;;;;6.80;1.42;;;9.70;99.90;;;;;;4956279;28;20031;-87
2023/11/06 05:12:08;;;;;;;7.63;1.40;;;9.70;99.90;;;;;;4955471;28;20094;-88
2023/11/06 05:14:34;;;;;;;8.32;1.92;;;9.70;99.90;;;;;;4955626;28;20031;-87
2023/11/06 05:16:59;;;;;;;7.90;1.77;;;9.70;99.90;;;;;;4967441;28;20031;-87
2023/11/06 05:19:25;;;;;;;2.80;1.38;;;9.70;99.90;;;;;;4956701;28;20482;-87
2023/11/06 05:21:50;;;;;;;5.82;2.00;;;9.70;99.90;;;;;;4955563;28;20035;-87
2023/11/06 05:24:16;;;;;;;7.95;1.30;;;9.70;99.90;;;;;;4956070;28;20016;-87
2023/11/06 05:26:41;;;;;;;8.82;1.75;;;9.70;99.90;;;;;;4955501;28;20027;-86
2023/11/06 05:29:07;;;;;;;6.38;1.45;;;9.70;99.90;;;;;;4955257;28;20028;-86
2023/11/06 05:31:33;;;;;;;6.88;1.65;;;9.70;99.90;;;;;;4955533;28;20496;-87
2023/11/06 05:33:58;;;;;;;10.05;2.08;;;9.70;99.90;;;;;;4955463;28;20023;-85
2023/11/06 05:36:29;;;;;;;5.07;1.55;;;9.70;99.90;;;;;;4955477;28;20361;-87
2023/11/06 05:38:56;;;;;;;8.80;2.35;;;9.80;99.90;;;;;;4959564;28;20038;-85
2023/11/06 05:41:22;;;;;;;6.40;1.30;;;9.70;99.90;;;;;;4962971;28;20051;-87
2023/11/06 05:43:49;;;;;;;11.10;2.40;;;9.50;99.90;;;;;;4975236;28;20157;-86
2023/11/06 05:46:15;;;;;;;10.75;1.90;;;9.70;99.90;;;;;;4975493;28;20033;-87
2023/11/06 05:48:40;;;;;;;8.00;1.70;;;9.70;99.90;;;;;;4974513;28;20052;-87
2023/11/06 05:51:06;;;;;;;10.30;2.40;;;9.70;99.90;;;;;;4975527;28;20110;-86
2023/11/06 05:53:32;;;;;;;10.27;2.40;;;9.70;99.90;;;;;;4974684;28;20051;-87
2023/11/06 05:55:57;;;;;;;7.40;2.20;;;9.70;99.90;;;;;;4974788;28;20022;-87
2023/11/06 05:58:23;;;;;;;5.95;2.00;;;9.70;99.90;;;;;;4975806;28;20410;-89
2023/11/06 06:00:48;;;;;;;14.55;2.42;;;9.70;99.90;;;;;;4971565;28;20031;-88
2023/11/06 06:03:15;;;;;;;10.70;3.08;;;9.70;99.90;;;;;;4970656;28;20133;-88
2023/11/06 06:05:42;;;;;;;12.55;2.13;;;9.70;99.90;;;;;;4974868;28;20105;-86
2023/11/06 06:08:11;;;;;;;8.10;2.10;;;9.70;99.90;;;;;;4975523;28;20031;-87
2023/11/06 06:10:37;;;;;;;11.02;2.58;;;9.70;99.90;;;;;;4974237;28;20019;-85
2023/11/06 06:13:03;;;;;;;7.68;2.38;;;9.60;99.90;;;;;;4974796;28;20037;-86
2023/11/06 06:15:28;;;;;;;9.02;2.20;;;9.60;99.90;;;;;;4974382;28;20054;-88
2023/11/06 06:17:54;;;;;;;6.25;2.20;;;9.70;99.90;;;;;;4974388;28;20443;-87
2023/11/06 06:20:19;;;;;;;11.45;2.72;;;9.60;99.90;;;;;;4974934;28;20452;-87
2023/11/06 06:22:46;;;;;;;9.82;2.25;;;9.70;99.90;;;;;;4970051;28;20697;-87
2023/11/06 06:25:12;;;;;;;10.02;2.83;;;9.70;99.90;;;;;;4954510;28;20031;-89
2023/11/06 06:27:38;;;;;;;11.07;2.85;;;9.60;99.90;;;;;;4956437;28;20059;-87
2023/11/06 06:30:07;;;;;;;9.00;2.50;;;9.60;99.90;;;;;;4954226;28;20067;-87
2023/11/06 06:32:33;;;;;;;8.75;2.80;;;9.60;99.90;;;;;;4957467;28;20023;-86
2023/11/06 06:34:59;;;;;;;12.65;2.53;;;9.60;99.90;;;;;;4956423;28;20075;-86
2023/11/06 06:37:25;;;;;;;10.75;2.58;;;9.60;99.90;;;;;;4962237;28;20031;-85
2023/11/06 06:39:50;;;;;;;14.90;2.72;;;9.60;99.90;;;;;;4973844;28;20054;-87
2023/11/06 06:42:17;;;;;;;12.48;2.67;;;9.60;99.90;;;;;;4973355;28;20111;-85
2023/11/06 06:44:43;;;;;;;8.27;2.35;;;9.60;99.90;;;;;;4965688;28;20030;-87
2023/11/06 06:47:09;;;;;;;12.77;2.50;;;9.60;99.90;;;;;;4954818;28;20479;-85
2023/11/06 06:49:39;;;;;;;10.63;2.08;;;9.60;99.90;;;;;;4954331;28;20030;-86
2023/11/06 06:52:05;;;;;;;9.45;1.75;;;9.60;99.90;;;;;;4954405;28;20039;-87
2023/11/06 06:54:31;;;;;;;13.77;2.90;;;9.60;99.90;;;;;;4954256;28;20086;-86
2023/11/06 06:56:57;;;;;;;7.80;2.33;;;9.90;99.90;;;;;;4954812;28;20031;-86
2023/11/06 06:59:23;;;;;;;7.90;1.60;;;9.70;99.90;;;;;;4954199;28;20409;-88
2023/11/06 07:01:48;;;;;;;9.10;1.73;;;9.60;99.90;;;;;;4955042;28;20070;-89
2023/11/06 07:04:14;;;;;;;9.73;2.08;;;9.70;99.90;;;;;;4964300;28;20023;-93
2023/11/06 07:06:40;;;;;;;8.55;2.25;;;9.60;99.90;;;;;;4959236;29;20039;-90
2023/11/06 07:09:07;;;;;;;10.80;2.13;;;9.70;99.90;;;;;;4955521;28;20027;-90
2023/11/06 07:11:32;;;;;;;6.45;1.48;;;9.60;99.90;;;;;;4955164;28;20031;-91
2023/11/06 07:13:58;;;;;;;8.25;1.83;;;9.60;99.90;;;;;;4961951;28;20034;-89
2023/11/06 07:16:24;;;;;;;4.80;1.67;;;9.60;99.90;;;;;;4955150;28;20027;-86
2023/11/06 07:18:49;;;;;;;7.25;1.73;;;9.60;99.90;;;;;;4981037;28;20037;-86
2023/11/06 07:21:17;;;;;;;10.73;2.15;;;9.60;99.90;;;;;;4980800;28;20141;-86
2023/11/06 07:23:44;;;;;;;7.65;1.83;;;9.60;99.90;;;;;;4980699;28;20058;-83
2023/11/06 07:26:10;;;;;;;8.05;1.98;;;9.60;99.90;;;;;;4964570;28;20074;-87
2023/11/06 07:28:36;;;;;;;7.50;1.98;;;9.70;99.90;;;;;;4970384;28;20033;-89
2023/11/06 07:31:02;;;;;;;5.03;1.48;;;9.70;99.90;;;;;;4973765;28;20055;-89
2023/11/06 07:33:27;;;;;;;7.82;1.65;;;9.70;99.90;;;;;;4973455;28;20023;-89
2023/11/06 07:35:53;;;;;;;8.52;1.92;;;9.70;99.90;;;;;;4976893;28;20034;-86
2023/11/06 07:38:18;;;;;;;10.43;2.25;;;9.70;99.90;;;;;;4978114;28;20069;-89
2023/11/06 07:40:44;;;;;;;8.20;1.30;;;9.70;99.90;;;;;;4977561;28;20061;-86
2023/11/06 07:43:10;;;;;;;10.82;1.98;;;9.70;99.90;;;;;;4977620;28;20031;-85
2023/11/06 07:45:36;;;;;;;8.35;1.40;;;9.70;99.90;;;;;;4966298;28;20031;-84
2023/11/06 07:48:05;;;;;;;7.43;1.55;;;9.70;99.90;;;;;;4958258;28;20035;-86
2023/11/06 07:50:34;;;;;;;5.97;1.67;;;9.70;99.90;;;;;;4959785;28;20023;-86
2023/11/06 07:53:03;;;;;;;8.38;2.03;;;9.70;99.90;;;;;;4964755;28;20031;-87
2023/11/06 07:55:29;;;;;;;3.55;1.33;;;9.80;99.90;;;;;;4957684;28;20151;-85
2023/11/06 07:57:54;;;;;;;10.48;1.85;;;9.80;99.90;;;;;;4957833;28;20114;-89
2023/11/06 08:00:20;;;;;;;9.32;1.83;;;9.70;99.90;;;;;;4957647;28;20027;-88
2023/11/06 08:02:46;;;;;;;9.93;1.95;;;9.70;99.90;;;;;;4957411;28;20035;-88
2023/11/06 08:05:11;;;;;;;11.02;1.92;;;9.70;99.90;;;;;;4971508;28;20030;-86
2023/11/06 08:07:38;;;;;;;7.75;1.98;;;10.20;99.90;;;;;;4982411;28;20031;-87
2023/11/06 08:10:09;;;;;;;7.07;1.98;;;9.80;99.90;;;;;;4990105;28;20030;-87
2023/11/06 08:12:35;;;;;;;7.35;1.48;;;9.80;99.90;;;;;;4970493;28;20525;-89
2023/11/06 08:15:02;;;;;;;10.85;1.67;;;9.80;99.90;;;;;;4962855;28;20086;-92
2023/11/06 08:17:28;;;;;;;8.60;2.92;;;9.80;99.90;;;;;;4962785;28;20460;-93
2023/11/06 08:19:53;;;;;;;7.65;2.50;;;9.70;99.90;;;;;;4978622;28;20041;-93
2023/11/06 08:22:21;;;;;;;14.63;2.20;;;9.90;99.90;;;;;;4978120;28;20103;-93
2023/11/06 08:24:46;;;;;;;10.40;2.15;;;9.90;99.90;;;;;;4993015;28;20038;-87
2023/11/06 08:27:12;;;;;;;10.73;2.35;;;9.90;99.90;;;;;;4971088;28;20078;-88
2023/11/06 08:29:42;;;;;;;10.98;2.08;;;9.90;99.90;;;;;;4971211;28;20089;-89
2023/11/06 08:32:08;;;;;;;13.77;3.28;;;10.00;99.90;;;;;;4972863;28;20023;-89
2023/11/06 08:34:34;;;;;;;8.40;2.55;;;10.00;99.90;;;;;;4971885;28;20525;-88
2023/11/06 08:37:00;;;;;;;15.63;3.63;;;10.00;99.90;;;;;;4970805;28;20031;-89
2023/11/06 08:39:25;;;;;;;19.40;3.75;;;10.00;99.90;;;;;;4972327;28;20349;-89
2023/11/06 08:41:51;;;;;;;12.43;3.25;;;10.00;99.90;;;;;;4972839;28;20482;-88
2023/11/06 08:44:16;;;;;;;11.40;2.85;;;10.10;99.90;;;;;;4971429;28;20023;-88
2023/11/06 08:46:43;;;;;;;15.45;3.58;;;10.10;99.90;;;;;;4968754;28;20114;-87
2023/11/06 08:49:09;;;;;;;11.82;3.53;;;10.10;99.90;;;;;;4968618;28;20455;-87
2023/11/06 08:51:34;;;;;;;10.05;2.97;;;10.10;99.90;;;;;;4972386;28;20054;-87
2023/11/06 08:54:00;;;;;;;18.25;3.95;;;10.20;99.90;;;;;;4973132;28;20027;-89
2023/11/06 08:56:29;;;;;;;12.52;3.10;;;10.20;99.90;;;;;;4972328;28;20015;-88
2023/11/06 08:58:55;;;;;;;15.35;4.30;;;10.20;99.90;;;;;;4968980;28;20031;-89
2023/11/06 09:01:21;;;;;;;18.80;3.85;;;10.20;99.90;;;;;;4973935;28;20062;-88
2023/11/06 09:03:46;;;;;;;10.75;2.60;;;10.20;99.90;;;;;;4975136;28;20081;-87
2023/11/06 09:06:12;;;;;;;17.95;3.33;;;10.20;99.90;;;;;;4973992;28;20464;-86
2023/11/06 09:08:37;;;;;;;9.77;2.55;;;10.30;99.90;;;;;;4973580;28;20505;-89
2023/11/06 09:11:03;;;;;;;10.85;2.53;;;10.20;99.90;;;;;;4974456;28;20455;-88
2023/11/06 09:13:35;;;;;;;11.70;2.80;;;10.30;99.90;;;;;;4973492;28;20034;-87
2023/11/06 09:16:01;;;;;;;11.15;2.80;;;10.20;99.90;;;;;;4974127;28;20139;-89
2023/11/06 09:18:27;;;;;;;13.73;2.53;;;10.20;99.90;;;;;;4973378;28;20070;-90
2023/11/06 09:20:54;;;;;;;14.90;3.08;;;10.30;99.90;;;;;;4973123;28;20026;-88
2023/11/06 09:23:21;;;;;;;8.65;2.60;;;10.30;99.90;;;;;;4974093;28;20038;-85
2023/11/06 09:25:47;;;;;;;13.45;2.53;;;10.30;99.90;;;;;;4972494;28;20039;-87
2023/11/06 09:28:13;;;;;;;7.70;1.67;;;10.20;99.90;;;;;;4972518;28;20046;-88
2023/11/06 09:30:42;;;;;;;10.63;2.10;;;10.30;99.90;;;;;;4968610;28;20074;-86
2023/11/06 09:33:07;;;;;;;11.68;2.63;;;10.30;99.90;;;;;;4970299;28;20063;-87
2023/11/06 09:35:33;;;;;;;16.08;2.85;;;11.40;99.90;;;;;;4970087;28;20023;-88
2023/11/06 09:37:58;;;;;;;19.30;2.65;;;10.30;99.90;;;;;;4973795;28;20030;-86
2023/11/06 09:40:26;;;;;;;12.88;2.10;;;10.30;99.90;;;;;;4973016;28;20126;-88
2023/11/06 09:42:51;;;;;;;12.02;2.38;;;10.30;99.90;;;;;;4973500;28;20157;-89
2023/11/06 09:45:17;;;;;;;13.15;3.15;;;10.30;99.90;;;;;;4976160;28;20586;-89
2023/11/06 09:47:51;;;;;;;9.07;2.35;;;10.30;99.90;;;;;;4973381;28;20022;-78
2023/11/06 09:50:22;;;;;;;8.95;2.10;;;10.30;99.90;;;;;;4967556;28;20046;-88
2023/11/06 09:52:49;;;;;;;6.88;2.10;;;10.30;99.90;;;;;;4970477;28;20033;-88
2023/11/06 09:55:20;;;;;;;11.07;2.90;;;10.40;99.90;;;;;;4972534;28;20031;-88
2023/11/06 09:57:48;;;;;;;6.65;1.85;;;10.40;99.90;;;;;;4972466;28;20022;-87
2023/11/06 10:00:17;;;;;;;14.35;2.35;;;10.40;99.90;;;;;;4972713;28;20427;-88
2023/11/06 10:02:43;;;;;;;10.85;2.30;;;10.40;99.90;;;;;;4969538;28;20039;-86
2023/11/06 10:05:13;;;;;;;11.32;2.40;;;10.50;99.90;;;;;;4969982;28;20026;-83
2023/11/06 10:07:45;;;;;;;12.00;2.35;;;10.90;99.90;;;;;;4972535;28;20128;-88
2023/11/06 10:10:12;;;;;;;12.82;2.38;;;10.50;99.90;;;;;;4972419;28;20086;-88
2023/11/06 10:12:38;;;;;;;11.32;2.00;;;10.60;99.90;;;;;;4973214;28;20026;-91
2023/11/06 10:15:07;;;;;;;9.25;1.70;;;10.60;99.90;;;;;;4973903;28;20070;-88
2023/11/06 10:17:33;;;;;;;5.07;1.42;;;10.60;99.90;;;;;;4974509;28;20038;-88
2023/11/06 10:20:22;;;;;;;13.15;1.85;;;11.10;99.90;;;;;;4973411;28;20019;-88
2023/11/06 10:22:55;;;;;;;15.43;2.55;;;10.70;99.90;;;;;;4971600;28;20035;-89
2023/11/06 10:25:30;;;;;;;13.35;2.97;;;10.70;99.90;;;;;;4973659;28;20045;-90
2023/11/06 10:27:56;;;;;;;12.93;2.35;;;10.70;99.90;;;;;;4974450;28;20015;-89
2023/11/06 10:30:23;;;;;;;14.23;2.50;;;10.80;99.90;;;;;;4973276;28;20133;-91
2023/11/06 10:32:48;;;;;;;8.55;2.25;;;10.70;99.90;;;;;;4975133;28;20026;-90
2023/11/06 10:35:18;;;;;;;11.23;2.42;;;10.70;99.90;;;;;;4975647;28;20027;-92
2023/11/06 10:37:45;;;;;;;5.10;2.17;;;10.70;99.90;;;;;;4978054;28;20039;-91
2023/11/06 10:40:13;;;;;;;19.40;2.80;;;10.70;99.90;;;;;;4975713;28;20023;-90
2023/11/06 10:42:43;;;;;;;5.07;1.60;;;10.80;99.90;;;;;;4974598;28;20031;-90
2023/11/06 10:45:11;;;;;;;5.47;2.35;;;10.80;99.90;;;;;;4976160;28;20085;-92
2023/11/06 10:47:43;;;;;;;12.65;2.28;;;10.80;99.90;;;;;;4971377;28;20035;-89
2023/11/06 10:50:14;;;;;;;10.05;1.98;;;10.80;99.90;;;;;;4970562;28;20034;-90
2023/11/06 10:52:41;;;;;;;10.52;1.88;;;10.80;99.90;;;;;;4974521;28;20027;-88
2023/11/06 10:55:12;;;;;;;9.93;1.83;;;10.80;99.90;;;;;;4973786;28;20110;-90
2023/11/06 10:57:40;;;;;;;10.73;2.10;;;10.90;99.90;;;;;;4975929;28;20027;-90
2023/11/06 11:00:07;;;;;;;9.43;2.30;;;10.90;99.90;;;;;;4975096;28;20130;-90
2023/11/06 11:02:49;;;;;;;10.32;2.55;;;11.00;99.90;;;;;;4976297;28;20085;-90
2023/11/06 11:05:17;;;;;;;5.05;1.50;;;11.10;99.90;;;;;;4971145;28;20035;-90
2023/11/06 11:07:45;;;;;;;6.85;1.90;;;11.00;99.90;;;;;;4973808;28;20418;-91
2023/11/06 11:10:15;;;;;;;9.27;1.65;;;11.00;99.90;;;;;;4971664;28;20078;-92
2023/11/06 11:12:42;;;;;;;7.57;1.77;;;11.00;99.90;;;;;;4977076;28;20027;-89
2023/11/06 11:15:08;;;;;;;10.88;2.63;;;11.00;99.90;;;;;;4976890;28;20050;-91
2023/11/06 11:17:36;;;;;;;13.15;2.55;;;11.00;99.90;;;;;;4977670;28;20049;-88
2023/11/06 11:20:06;;;;;;;6.85;1.58;;;10.80;99.90;;;;;;4996525;28;20054;-89
2023/11/06 11:22:32;;;;;;;6.93;2.03;;;11.00;99.90;;;;;;4976758;28;20097;-90
2023/11/06 11:24:59;;;;;;;9.63;2.30;;;11.00;99.90;;;;;;4976569;28;20054;-89
2023/11/06 11:27:27;;;;;;;5.25;1.83;;;11.00;99.90;;;;;;4975879;28;20557;-89
2023/11/06 11:29:53;;;;;;;3.80;1.50;;;11.00;99.90;;;;;;4975988;28;20042;-89
2023/11/06 11:32:37;;;;;;;13.32;2.63;;;10.90;99.90;;;;;;4976997;28;20093;-89
2023/11/06 11:35:34;;;;;;;12.50;2.00;;;10.90;99.90;;;;;;4976564;28;20037;-88
2023/11/06 11:38:00;;;;;;;8.40;2.65;;;10.90;99.90;;;;;;4974993;28;20026;-89
2023/11/06 11:40:46;;;;;;;12.98;2.22;;;10.90;99.90;;;;;;4975335;28;20031;-89
2023/11/06 11:43:34;;;;;;;12.75;2.75;;;11.00;99.90;;;;;;4976863;28;20039;-88
2023/11/06 11:45:59;;;;;;;8.15;2.60;;;11.00;99.90;;;;;;4983882;28;20082;-89
2023/11/06 11:48:48;;;;;;;8.55;2.17;;;11.00;99.90;;;;;;4978929;28;20061;-90
2023/11/06 11:51:47;;;;;;;11.73;3.03;;;11.00;99.90;;;;;;4977800;28;20023;-88
2023/11/06 11:54:32;;;;;;;13.27;2.25;;;11.00;99.90;;;;;;4979766;28;20109;-90
2023/11/06 11:56:59;;;;;;;10.73;2.22;;;11.00;99.90;;;;;;4970484;28;20035;-87
2023/11/06 11:59:26;;;;;;;14.80;2.38;;;11.00;99.90;;;;;;4975697;28;20023;-92
2023/11/06 12:01:55;;;;;;;9.52;2.30;;;10.90;99.90;;;;;;4988806;28;20026;-93
2023/11/06 12:04:23;;;;;;;9.68;2.90;;;11.00;99.90;;;;;;4986845;28;20059;-94
2023/11/06 12:07:09;;;;;;;7.90;2.17;;;11.00;99.90;;;;;;4982955;28;20026;-94
2023/11/06 12:09:50;;;;;;;4.80;1.77;;;11.00;99.90;;;;;;4976006;28;20074;-91
2023/11/06 12:12:27;;;;;;;11.98;2.55;;;11.00;99.90;;;;;;4979231;28;20041;-92
2023/11/06 12:14:55;;;;;;;5.82;2.03;;;11.00;99.90;;;;;;4974237;28;20049;-93
2023/11/06 12:17:38;;;;;;;3.55;1.20;;;11.10;99.90;;;;;;4972091;28;20039;-90
2023/11/06 12:20:09;;;;;;;7.97;2.03;;;11.10;99.90;;;;;;4956763;28;20019;-93
2023/11/06 12:22:47;;;;;;;6.68;2.00;;;11.10;99.90;;;;;;4957728;28;20054;-90
2023/11/06 12:25:14;;;;;;;10.52;2.13;;;11.20;99.90;;;;;;4965027;28;20060;-90
2023/11/06 12:27:39;;;;;;;4.85;1.55;;;11.20;99.90;;;;;;4967499;28;20031;-88
2023/11/06 12:30:07;;;;;;;8.60;2.03;;;11.20;99.90;;;;;;4982184;28;20089;-89
2023/11/06 12:32:35;;;;;;;5.40;1.50;;;11.20;99.90;;;;;;4981060;28;20462;-88
2023/11/06 12:35:05;;;;;;;4.50;1.30;;;11.20;99.90;;;;;;4962874;28;20037;-90
2023/11/06 12:37:48;;;;;;;6.30;1.63;;;11.20;99.90;;;;;;4966933;28;20030;-84
2023/11/06 12:40:15;;;;;;;3.90;1.60;;;11.20;99.90;;;;;;4974727;28;20058;-85
2023/11/06 12:42:42;;;;;;;7.82;1.85;;;11.20;99.90;;;;;;4972512;28;20057;-87
2023/11/06 12:45:30;;;;;;;3.65;1.33;;;11.20;99.90;;;;;;4976646;28;20031;-88
2023/11/06 12:47:56;;;;;;;10.48;1.85;;;11.20;99.90;;;;;;4975000;28;20050;-89